To NAV CANADA Home Page Login to a new session Search on AWWS site Disclaimer Vers la page française équivalente Tips FAQ What's new on the site To the Forecasts and Observations / NOTAM section To "File a Flight Plan" website Publications and other links Update of the User's profile FIC Telephone Numbers My Weather Data Folder Route Weather Data Regional Weather Data Local Weather Data To the Forecasts and Observations / NOTAM section
Request Generated 10/19/2018 at 15:30:20 UTC . Weather information available at that time is displayed.

METAR/TAF

SANDY LAKE/ON    (show WxCam)

SPECI CZSJ 191524Z AUTO 32012G19KT 2 1/2SM -SN BKN010 BKN015 OVC029 01/M00 A2958 RMK SLP032=
SPECI CZSJ 191522Z AUTO 32012G18KT 5SM -SN FEW008 BKN013 OVC029 01/M00 A2958 RMK SLP032=
SPECI CZSJ 191521Z AUTO 32013G18KT 6SM -SN FEW008 BKN013 OVC029 01/M00 A2958 RMK SLP031=
SPECI CZSJ 191517Z AUTO 32010G18KT 4SM -SN BKN011 OVC029 01/M00 A2958 RMK SLP031=
SPECI CZSJ 191503Z AUTO 31013G21KT 5SM -SN FEW011 BKN029 OVC043 01/M00 A2957 RMK SLP029=
METAR CZSJ 191500Z AUTO 31012G21KT 8SM -RASN FEW011 BKN029 OVC043 01/M00 A2958 RMK SLP030=
SPECI CZSJ 191457Z AUTO 32015G21KT 9SM -RASN FEW011 BKN029 OVC043 01/M01 A2957 RMK SLP030=
SPECI CZSJ 191454Z AUTO 31015G20KT 9SM -RA FEW011 BKN029 OVC043 01/M00 A2957 RMK SLP030=
METAR CZSJ 191400Z AUTO 29009KT 260V320 9SM SCT008 SCT055 SCT064 OVC083 00/M01 A2956 RMK SLP028=
METAR CZSJ 191300Z AUTO 29007KT 9SM SCT140 SCT160 M00/M01 A2956 RMK SLP026=

TAF AMD CZSJ 191507Z 1915/1922 31012G22KT 6SM -SN SCT006 OVC020 TEMPO
1915/1918 2SM -SN BR BKN006 OVC015
FM191800 30015G25KT 11/2SM -SN OVC012 TEMPO 1918/1922 5SM -SN
OVC025
RMK FCST BASED ON AUTO OBS. NXT FCST BY 191600Z=
Your time UTC time
Weather data provided by Environment Canada and NAV CANADA